sensor_id;sensor_type;location;lat;lon;timestamp;temperature;humidity
3876;DHT22;1953;51.222;6.624;2023-05-10T00:00:43;15.10;1.00
3876;DHT22;1953;51.222;6.624;2023-05-10T00:05:25;15.10;1.00
3876;DHT22;1953;51.222;6.624;2023-05-10T00:11:37;15.10;1.00
3876;DHT22;1953;51.222;6.624;2023-05-10T00:16:19;15.10;1.00
3876;DHT22;1953;51.222;6.624;2023-05-10T00:21:02;15.10;1.00
3876;DHT22;1953;51.222;6.624;2023-05-10T00:25:45;15.00;1.00
3876;DHT22;1953;51.222;6.624;2023-05-10T00:30:29;15.00;1.00
3876;DHT22;1953;51.222;6.624;2023-05-10T00:35:11;15.00;1.00
3876;DHT22;1953;51.222;6.624;2023-05-10T00:39:53;15.00;1.00
3876;DHT22;1953;51.222;6.624;2023-05-10T00:44:36;15.10;1.00
3876;DHT22;1953;51.222;6.624;2023-05-10T00:49:20;15.10;1.00
3876;DHT22;1953;51.222;6.624;2023-05-10T00:54:03;15.10;1.00
3876;DHT22;1953;51.222;6.624;2023-05-10T00:58:46;15.00;1.00
3876;DHT22;1953;51.222;6.624;2023-05-10T01:03:29;15.00;1.00
3876;DHT22;1953;51.222;6.624;2023-05-10T01:08:13;15.00;1.00
3876;DHT22;1953;51.222;6.624;2023-05-10T01:12:56;15.00;1.00
3876;DHT22;1953;51.222;6.624;2023-05-10T01:17:40;14.90;1.00
3876;DHT22;1953;51.222;6.624;2023-05-10T01:22:50;14.90;1.00
3876;DHT22;1953;51.222;6.624;2023-05-10T01:27:47;14.90;1.00
3876;DHT22;1953;51.222;6.624;2023-05-10T01:32:40;14.80;1.00
3876;DHT22;1953;51.222;6.624;2023-05-10T01:37:31;14.80;1.00
3876;DHT22;1953;51.222;6.624;2023-05-10T01:42:20;14.80;1.00
3876;DHT22;1953;51.222;6.624;2023-05-10T01:47:07;14.80;1.00
3876;DHT22;1953;51.222;6.624;2023-05-10T01:51:55;14.90;1.00
3876;DHT22;1953;51.222;6.624;2023-05-10T01:56:42;14.90;1.00
3876;DHT22;1953;51.222;6.624;2023-05-10T02:01:26;14.90;1.00
3876;DHT22;1953;51.222;6.624;2023-05-10T02:06:10;14.90;1.00
3876;DHT22;1953;51.222;6.624;2023-05-10T02:10:57;15.00;1.00
3876;DHT22;1953;51.222;6.624;2023-05-10T02:15:41;14.90;1.00
3876;DHT22;1953;51.222;6.624;2023-05-10T02:59:49;15.10;1.00
3876;DHT22;1953;51.222;6.624;2023-05-10T03:04:31;15.20;1.00
3876;DHT22;1953;51.222;6.624;2023-05-10T03:09:14;14.60;1.00
3876;DHT22;1953;51.222;6.624;2023-05-10T03:14:13;15.00;1.00
3876;DHT22;1953;51.222;6.624;2023-05-10T03:19:06;15.00;1.00
3876;DHT22;1953;51.222;6.624;2023-05-10T03:23:54;15.00;1.00
3876;DHT22;1953;51.222;6.624;2023-05-10T03:28:39;14.90;1.00
3876;DHT22;1953;51.222;6.624;2023-05-10T03:33:23;14.90;1.00
3876;DHT22;1953;51.222;6.624;2023-05-10T03:38:07;15.00;1.00
3876;DHT22;1953;51.222;6.624;2023-05-10T03:42:49;14.90;1.00
3876;DHT22;1953;51.222;6.624;2023-05-10T03:47:32;14.90;1.00
3876;DHT22;1953;51.222;6.624;2023-05-10T03:52:14;14.90;1.00
3876;DHT22;1953;51.222;6.624;2023-05-10T03:56:58;14.80;1.00
3876;DHT22;1953;51.222;6.624;2023-05-10T04:01:42;14.80;1.00
3876;DHT22;1953;51.222;6.624;2023-05-10T04:06:24;14.90;1.00
3876;DHT22;1953;51.222;6.624;2023-05-10T04:11:07;14.90;1.00
3876;DHT22;1953;51.222;6.624;2023-05-10T04:15:51;14.90;1.00
3876;DHT22;1953;51.222;6.624;2023-05-10T04:20:33;14.90;1.00
3876;DHT22;1953;51.222;6.624;2023-05-10T04:25:16;14.90;1.00
3876;DHT22;1953;51.222;6.624;2023-05-10T04:29:58;14.80;1.00
3876;DHT22;1953;51.222;6.624;2023-05-10T04:34:43;14.90;1.00
3876;DHT22;1953;51.222;6.624;2023-05-10T04:39:25;14.90;1.00
3876;DHT22;1953;51.222;6.624;2023-05-10T04:44:08;14.90;1.00
3876;DHT22;1953;51.222;6.624;2023-05-10T04:48:50;15.00;1.00
3876;DHT22;1953;51.222;6.624;2023-05-10T04:53:34;14.90;1.00
3876;DHT22;1953;51.222;6.624;2023-05-10T04:58:17;14.90;1.00
3876;DHT22;1953;51.222;6.624;2023-05-10T05:02:59;15.00;1.00
3876;DHT22;1953;51.222;6.624;2023-05-10T05:07:42;15.00;1.00
3876;DHT22;1953;51.222;6.624;2023-05-10T05:12:26;15.10;1.00
3876;DHT22;1953;51.222;6.624;2023-05-10T05:17:08;15.10;1.00
3876;DHT22;1953;51.222;6.624;2023-05-10T05:21:51;15.00;1.00
3876;DHT22;1953;51.222;6.624;2023-05-10T05:26:34;14.90;1.00
3876;DHT22;1953;51.222;6.624;2023-05-10T05:31:18;14.80;1.00
3876;DHT22;1953;51.222;6.624;2023-05-10T05:36:00;14.80;1.00
3876;DHT22;1953;51.222;6.624;2023-05-10T05:40:44;14.80;1.00
3876;DHT22;1953;51.222;6.624;2023-05-10T05:45:27;14.80;1.00
3876;DHT22;1953;51.222;6.624;2023-05-10T05:50:11;14.80;1.00
3876;DHT22;1953;51.222;6.624;2023-05-10T05:54:54;14.80;1.00
3876;DHT22;1953;51.222;6.624;2023-05-10T05:59:36;14.70;1.00
3876;DHT22;1953;51.222;6.624;2023-05-10T06:04:23;14.70;1.00
3876;DHT22;1953;51.222;6.624;2023-05-10T06:09:06;14.70;1.00
3876;DHT22;1953;51.222;6.624;2023-05-10T06:13:49;14.60;1.00
3876;DHT22;1953;51.222;6.624;2023-05-10T06:18:32;14.60;1.00
3876;DHT22;1953;51.222;6.624;2023-05-10T06:22:44;14.60;1.00
3876;DHT22;1953;51.222;6.624;2023-05-10T06:27:28;14.60;1.00
3876;DHT22;1953;51.222;6.624;2023-05-10T06:32:11;14.70;1.00
3876;DHT22;1953;51.222;6.624;2023-05-10T06:36:53;14.80;1.00
3876;DHT22;1953;51.222;6.624;2023-05-10T06:41:36;14.90;1.00
3876;DHT22;1953;51.222;6.624;2023-05-10T06:46:20;15.00;1.00
3876;DHT22;1953;51.222;6.624;2023-05-10T06:51:02;15.10;1.00
3876;DHT22;1953;51.222;6.624;2023-05-10T06:55:45;15.20;1.00
3876;DHT22;1953;51.222;6.624;2023-05-10T07:00:27;15.40;1.00
3876;DHT22;1953;51.222;6.624;2023-05-10T07:05:11;15.60;1.00
3876;DHT22;1953;51.222;6.624;2023-05-10T07:09:54;15.60;1.00
3876;DHT22;1953;51.222;6.624;2023-05-10T07:14:37;15.70;1.00
3876;DHT22;1953;51.222;6.624;2023-05-10T07:19:20;15.70;1.00
3876;DHT22;1953;51.222;6.624;2023-05-10T07:24:04;15.60;1.00
3876;DHT22;1953;51.222;6.624;2023-05-10T07:28:47;15.50;1.00
3876;DHT22;1953;51.222;6.624;2023-05-10T07:33:30;15.50;1.00
3876;DHT22;1953;51.222;6.624;2023-05-10T07:38:13;15.50;1.00
3876;DHT22;1953;51.222;6.624;2023-05-10T07:42:57;15.50;1.00
3876;DHT22;1953;51.222;6.624;2023-05-10T07:47:39;15.50;1.00
3876;DHT22;1953;51.222;6.624;2023-05-10T07:52:22;15.40;1.00
3876;DHT22;1953;51.222;6.624;2023-05-10T07:57:04;15.50;1.00
3876;DHT22;1953;51.222;6.624;2023-05-10T08:01:48;15.60;1.00
3876;DHT22;1953;51.222;6.624;2023-05-10T08:06:31;15.70;1.00
3876;DHT22;1953;51.222;6.624;2023-05-10T08:11:13;15.80;1.00
3876;DHT22;1953;51.222;6.624;2023-05-10T08:15:56;15.90;1.00
3876;DHT22;1953;51.222;6.624;2023-05-10T08:20:40;16.00;1.00
3876;DHT22;1953;51.222;6.624;2023-05-10T08:25:22;16.00;1.00
3876;DHT22;1953;51.222;6.624;2023-05-10T08:30:06;15.90;1.00
3876;DHT22;1953;51.222;6.624;2023-05-10T08:34:49;15.90;1.00
3876;DHT22;1953;51.222;6.624;2023-05-10T08:39:35;15.80;1.00
3876;DHT22;1953;51.222;6.624;2023-05-10T08:44:18;16.00;1.00
3876;DHT22;1953;51.222;6.624;2023-05-10T08:49:02;16.30;1.00
3876;DHT22;1953;51.222;6.624;2023-05-10T08:53:45;16.50;1.00
3876;DHT22;1953;51.222;6.624;2023-05-10T08:58:29;16.60;1.00
3876;DHT22;1953;51.222;6.624;2023-05-10T09:03:12;16.70;1.00
3876;DHT22;1953;51.222;6.624;2023-05-10T09:07:56;16.60;1.00
3876;DHT22;1953;51.222;6.624;2023-05-10T09:12:40;16.50;1.00
3876;DHT22;1953;51.222;6.624;2023-05-10T09:17:25;16.50;1.00
3876;DHT22;1953;51.222;6.624;2023-05-10T09:22:10;16.70;1.00
3876;DHT22;1953;51.222;6.624;2023-05-10T09:26:52;16.80;1.00
3876;DHT22;1953;51.222;6.624;2023-05-10T09:31:46;17.10;1.00
3876;DHT22;1953;51.222;6.624;2023-05-10T09:36:30;17.30;1.00
3876;DHT22;1953;51.222;6.624;2023-05-10T09:41:16;17.40;1.00
3876;DHT22;1953;51.222;6.624;2023-05-10T09:46:00;17.40;1.00
3876;DHT22;1953;51.222;6.624;2023-05-10T09:50:56;17.40;1.00
3876;DHT22;1953;51.222;6.624;2023-05-10T09:55:41;17.30;1.00
3876;DHT22;1953;51.222;6.624;2023-05-10T10:00:27;16.90;1.00
3876;DHT22;1953;51.222;6.624;2023-05-10T10:05:11;16.90;1.00
3876;DHT22;1953;51.222;6.624;2023-05-10T10:09:54;16.80;1.00
3876;DHT22;1953;51.222;6.624;2023-05-10T10:14:38;17.00;1.00
3876;DHT22;1953;51.222;6.624;2023-05-10T10:19:22;17.20;1.00
3876;DHT22;1953;51.222;6.624;2023-05-10T10:24:05;17.40;1.00
3876;DHT22;1953;51.222;6.624;2023-05-10T10:28:55;17.60;1.00
3876;DHT22;1953;51.222;6.624;2023-05-10T10:33:55;17.60;1.00
3876;DHT22;1953;51.222;6.624;2023-05-10T10:38:57;17.70;1.00
3876;DHT22;1953;51.222;6.624;2023-05-10T10:43:41;17.50;1.00
3876;DHT22;1953;51.222;6.624;2023-05-10T10:48:24;17.50;1.00
3876;DHT22;1953;51.222;6.624;2023-05-10T10:53:12;17.40;1.00
3876;DHT22;1953;51.222;6.624;2023-05-10T10:57:55;17.20;1.00
3876;DHT22;1953;51.222;6.624;2023-05-10T11:02:45;17.20;1.00
3876;DHT22;1953;51.222;6.624;2023-05-10T11:07:29;17.20;1.00
3876;DHT22;1953;51.222;6.624;2023-05-10T11:12:14;17.40;1.00
3876;DHT22;1953;51.222;6.624;2023-05-10T11:16:57;17.40;1.00
3876;DHT22;1953;51.222;6.624;2023-05-10T11:21:47;17.40;1.00
3876;DHT22;1953;51.222;6.624;2023-05-10T11:26:32;17.40;1.00
3876;DHT22;1953;51.222;6.624;2023-05-10T11:31:17;17.50;1.00
3876;DHT22;1953;51.222;6.624;2023-05-10T11:36:00;17.50;1.00
3876;DHT22;1953;51.222;6.624;2023-05-10T11:40:43;17.60;1.00
3876;DHT22;1953;51.222;6.624;2023-05-10T11:45:26;17.70;1.00
3876;DHT22;1953;51.222;6.624;2023-05-10T11:50:10;17.70;1.00
3876;DHT22;1953;51.222;6.624;2023-05-10T11:54:54;17.70;1.00
3876;DHT22;1953;51.222;6.624;2023-05-10T11:59:36;17.70;1.00
3876;DHT22;1953;51.222;6.624;2023-05-10T12:04:19;17.70;1.00
3876;DHT22;1953;51.222;6.624;2023-05-10T12:12:42;18.10;1.00
3876;DHT22;1953;51.222;6.624;2023-05-10T12:17:27;18.30;1.00
3876;DHT22;1953;51.222;6.624;2023-05-10T12:22:10;18.40;1.00
3876;DHT22;1953;51.222;6.624;2023-05-10T12:26:53;18.60;1.00
3876;DHT22;1953;51.222;6.624;2023-05-10T12:31:50;18.60;1.00
3876;DHT22;1953;51.222;6.624;2023-05-10T12:36:38;18.60;1.00
3876;DHT22;1953;51.222;6.624;2023-05-10T12:41:21;18.70;1.00
3876;DHT22;1953;51.222;6.624;2023-05-10T12:46:07;18.80;1.00
3876;DHT22;1953;51.222;6.624;2023-05-10T12:50:51;18.80;1.00
3876;DHT22;1953;51.222;6.624;2023-05-10T12:55:33;18.90;1.00
3876;DHT22;1953;51.222;6.624;2023-05-10T13:00:16;19.00;1.00
3876;DHT22;1953;51.222;6.624;2023-05-10T13:04:59;18.90;1.00
3876;DHT22;1953;51.222;6.624;2023-05-10T13:09:43;19.10;1.00
3876;DHT22;1953;51.222;6.624;2023-05-10T13:14:26;19.10;1.00
3876;DHT22;1953;51.222;6.624;2023-05-10T13:19:08;19.10;1.00
3876;DHT22;1953;51.222;6.624;2023-05-10T13:23:52;19.00;1.00
3876;DHT22;1953;51.222;6.624;2023-05-10T13:28:36;19.00;1.00
3876;DHT22;1953;51.222;6.624;2023-05-10T13:33:19;19.20;1.00
3876;DHT22;1953;51.222;6.624;2023-05-10T13:38:02;19.30;1.00
3876;DHT22;1953;51.222;6.624;2023-05-10T13:42:44;19.50;1.00
3876;DHT22;1953;51.222;6.624;2023-05-10T13:47:28;19.60;1.00
3876;DHT22;1953;51.222;6.624;2023-05-10T13:52:11;19.50;1.00
3876;DHT22;1953;51.222;6.624;2023-05-10T13:56:53;19.10;1.00
3876;DHT22;1953;51.222;6.624;2023-05-10T14:01:36;19.00;1.00
3876;DHT22;1953;51.222;6.624;2023-05-10T14:06:20;19.10;1.00
3876;DHT22;1953;51.222;6.624;2023-05-10T14:11:03;19.70;1.00
3876;DHT22;1953;51.222;6.624;2023-05-10T14:15:45;21.00;1.00
3876;DHT22;1953;51.222;6.624;2023-05-10T14:20:28;21.70;1.00
3876;DHT22;1953;51.222;6.624;2023-05-10T14:25:12;22.40;1.00
3876;DHT22;1953;51.222;6.624;2023-05-10T14:29:55;22.10;1.00
3876;DHT22;1953;51.222;6.624;2023-05-10T14:34:38;21.10;1.00
3876;DHT22;1953;51.222;6.624;2023-05-10T14:39:20;20.80;1.00
3876;DHT22;1953;51.222;6.624;2023-05-10T14:44:05;20.60;1.00
3876;DHT22;1953;51.222;6.624;2023-05-10T14:48:47;20.70;1.00
3876;DHT22;1953;51.222;6.624;2023-05-10T14:53:30;21.30;1.00
3876;DHT22;1953;51.222;6.624;2023-05-10T14:58:13;21.30;1.00
3876;DHT22;1953;51.222;6.624;2023-05-10T15:02:57;21.10;1.00
3876;DHT22;1953;51.222;6.624;2023-05-10T15:07:39;21.10;1.00
3876;DHT22;1953;51.222;6.624;2023-05-10T15:12:24;21.10;1.00
3876;DHT22;1953;51.222;6.624;2023-05-10T15:17:07;21.30;1.00
3876;DHT22;1953;51.222;6.624;2023-05-10T15:21:51;21.30;1.00
3876;DHT22;1953;51.222;6.624;2023-05-10T15:26:33;21.00;1.00
3876;DHT22;1953;51.222;6.624;2023-05-10T15:31:16;21.10;1.00
3876;DHT22;1953;51.222;6.624;2023-05-10T15:35:59;21.00;1.00
3876;DHT22;1953;51.222;6.624;2023-05-10T15:40:43;21.00;1.00
3876;DHT22;1953;51.222;6.624;2023-05-10T15:45:25;21.10;1.00
3876;DHT22;1953;51.222;6.624;2023-05-10T15:50:09;21.30;1.00
3876;DHT22;1953;51.222;6.624;2023-05-10T15:54:52;21.30;1.00
3876;DHT22;1953;51.222;6.624;2023-05-10T15:59:36;21.10;1.00
3876;DHT22;1953;51.222;6.624;2023-05-10T16:04:18;20.80;1.00
3876;DHT22;1953;51.222;6.624;2023-05-10T16:09:01;20.40;1.00
3876;DHT22;1953;51.222;6.624;2023-05-10T16:13:43;19.70;1.00
3876;DHT22;1953;51.222;6.624;2023-05-10T16:18:27;19.50;1.00
3876;DHT22;1953;51.222;6.624;2023-05-10T16:23:10;19.30;1.00
3876;DHT22;1953;51.222;6.624;2023-05-10T16:27:53;19.00;1.00
3876;DHT22;1953;51.222;6.624;2023-05-10T16:32:35;18.80;1.00
3876;DHT22;1953;51.222;6.624;2023-05-10T16:37:19;18.60;1.00
3876;DHT22;1953;51.222;6.624;2023-05-10T16:42:02;18.30;1.00
3876;DHT22;1953;51.222;6.624;2023-05-10T16:46:44;18.00;1.00
3876;DHT22;1953;51.222;6.624;2023-05-10T16:51:27;17.80;1.00
3876;DHT22;1953;51.222;6.624;2023-05-10T16:56:10;17.60;1.00
3876;DHT22;1953;51.222;6.624;2023-05-10T17:00:53;17.40;1.00
3876;DHT22;1953;51.222;6.624;2023-05-10T17:05:35;17.30;1.00
3876;DHT22;1953;51.222;6.624;2023-05-10T17:10:18;17.20;1.00
3876;DHT22;1953;51.222;6.624;2023-05-10T17:15:02;17.00;1.00
3876;DHT22;1953;51.222;6.624;2023-05-10T17:19:45;16.90;1.00
3876;DHT22;1953;51.222;6.624;2023-05-10T17:24:27;16.80;1.00
3876;DHT22;1953;51.222;6.624;2023-05-10T17:29:11;16.70;1.00
3876;DHT22;1953;51.222;6.624;2023-05-10T17:33:55;16.50;1.00
3876;DHT22;1953;51.222;6.624;2023-05-10T17:38:38;16.50;1.00
3876;DHT22;1953;51.222;6.624;2023-05-10T17:43:21;16.40;1.00
3876;DHT22;1953;51.222;6.624;2023-05-10T17:48:04;16.50;1.00
3876;DHT22;1953;51.222;6.624;2023-05-10T17:52:47;16.40;1.00
3876;DHT22;1953;51.222;6.624;2023-05-10T17:57:30;16.40;1.00
3876;DHT22;1953;51.222;6.624;2023-05-10T18:02:13;16.50;1.00
3876;DHT22;1953;51.222;6.624;2023-05-10T18:06:55;16.60;1.00
3876;DHT22;1953;51.222;6.624;2023-05-10T18:11:42;16.50;1.00
3876;DHT22;1953;51.222;6.624;2023-05-10T18:16:25;16.50;1.00
3876;DHT22;1953;51.222;6.624;2023-05-10T18:21:08;16.60;1.00
3876;DHT22;1953;51.222;6.624;2023-05-10T18:25:50;16.70;1.00
3876;DHT22;1953;51.222;6.624;2023-05-10T18:30:34;16.70;1.00
3876;DHT22;1953;51.222;6.624;2023-05-10T18:35:17;15.60;1.00
3876;DHT22;1953;51.222;6.624;2023-05-10T18:39:59;16.40;1.00
3876;DHT22;1953;51.222;6.624;2023-05-10T18:44:42;16.50;1.00
3876;DHT22;1953;51.222;6.624;2023-05-10T18:49:26;16.50;1.00
3876;DHT22;1953;51.222;6.624;2023-05-10T18:54:09;16.50;1.00
3876;DHT22;1953;51.222;6.624;2023-05-10T18:58:51;16.80;1.00
3876;DHT22;1953;51.222;6.624;2023-05-10T19:03:34;16.70;1.00
3876;DHT22;1953;51.222;6.624;2023-05-10T19:08:18;16.70;1.00
3876;DHT22;1953;51.222;6.624;2023-05-10T19:13:00;16.80;1.00
3876;DHT22;1953;51.222;6.624;2023-05-10T19:17:43;16.80;1.00
3876;DHT22;1953;51.222;6.624;2023-05-10T19:22:26;16.80;1.00
3876;DHT22;1953;51.222;6.624;2023-05-10T19:27:09;16.80;1.00
3876;DHT22;1953;51.222;6.624;2023-05-10T19:31:52;16.80;1.00
3876;DHT22;1953;51.222;6.624;2023-05-10T19:36:34;16.70;1.00
3876;DHT22;1953;51.222;6.624;2023-05-10T19:41:17;16.60;1.00
3876;DHT22;1953;51.222;6.624;2023-05-10T19:46:01;16.40;1.00
3876;DHT22;1953;51.222;6.624;2023-05-10T19:50:44;16.40;1.00
3876;DHT22;1953;51.222;6.624;2023-05-10T19:55:27;16.30;1.00
3876;DHT22;1953;51.222;6.624;2023-05-10T20:00:11;16.30;1.00
3876;DHT22;1953;51.222;6.624;2023-05-10T20:04:55;16.20;1.00
3876;DHT22;1953;51.222;6.624;2023-05-10T20:09:38;16.30;1.00
3876;DHT22;1953;51.222;6.624;2023-05-10T20:14:20;16.40;1.00
3876;DHT22;1953;51.222;6.624;2023-05-10T20:19:03;16.40;1.00
3876;DHT22;1953;51.222;6.624;2023-05-10T20:23:47;16.40;1.00
3876;DHT22;1953;51.222;6.624;2023-05-10T20:28:29;16.40;1.00
3876;DHT22;1953;51.222;6.624;2023-05-10T20:33:11;16.30;1.00
3876;DHT22;1953;51.222;6.624;2023-05-10T20:37:55;16.30;1.00
3876;DHT22;1953;51.222;6.624;2023-05-10T20:42:41;16.30;1.00
3876;DHT22;1953;51.222;6.624;2023-05-10T20:47:23;16.20;1.00
3876;DHT22;1953;51.222;6.624;2023-05-10T20:52:07;16.20;1.00
3876;DHT22;1953;51.222;6.624;2023-05-10T20:56:49;16.20;1.00
3876;DHT22;1953;51.222;6.624;2023-05-10T21:01:33;16.20;1.00
3876;DHT22;1953;51.222;6.624;2023-05-10T21:06:16;16.10;1.00
3876;DHT22;1953;51.222;6.624;2023-05-10T21:11:00;16.10;1.00
3876;DHT22;1953;51.222;6.624;2023-05-10T21:15:44;16.50;1.00
3876;DHT22;1953;51.222;6.624;2023-05-10T21:20:28;16.20;1.00
3876;DHT22;1953;51.222;6.624;2023-05-10T21:25:11;16.20;1.00
3876;DHT22;1953;51.222;6.624;2023-05-10T21:29:53;16.10;1.00
3876;DHT22;1953;51.222;6.624;2023-05-10T21:34:36;16.10;1.00
3876;DHT22;1953;51.222;6.624;2023-05-10T21:39:19;16.10;1.00
3876;DHT22;1953;51.222;6.624;2023-05-10T21:44:02;16.00;1.00
3876;DHT22;1953;51.222;6.624;2023-05-10T21:48:44;16.00;1.00
3876;DHT22;1953;51.222;6.624;2023-05-10T21:53:27;16.00;1.00
3876;DHT22;1953;51.222;6.624;2023-05-10T21:58:11;16.00;1.00
3876;DHT22;1953;51.222;6.624;2023-05-10T22:02:53;16.10;1.00
3876;DHT22;1953;51.222;6.624;2023-05-10T22:07:35;16.10;1.00
3876;DHT22;1953;51.222;6.624;2023-05-10T22:12:18;16.20;1.00
3876;DHT22;1953;51.222;6.624;2023-05-10T22:17:02;16.20;1.00
3876;DHT22;1953;51.222;6.624;2023-05-10T22:21:44;16.20;1.00
3876;DHT22;1953;51.222;6.624;2023-05-10T22:26:27;16.10;1.00
3876;DHT22;1953;51.222;6.624;2023-05-10T22:31:09;16.00;1.00
3876;DHT22;1953;51.222;6.624;2023-05-10T22:35:53;15.80;1.00
3876;DHT22;1953;51.222;6.624;2023-05-10T22:40:35;15.80;1.00
3876;DHT22;1953;51.222;6.624;2023-05-10T22:45:18;15.80;1.00
3876;DHT22;1953;51.222;6.624;2023-05-10T22:50:00;15.80;1.00
3876;DHT22;1953;51.222;6.624;2023-05-10T22:54:45;15.70;1.00
3876;DHT22;1953;51.222;6.624;2023-05-10T22:59:27;15.70;1.00
3876;DHT22;1953;51.222;6.624;2023-05-10T23:04:10;15.80;1.00
3876;DHT22;1953;51.222;6.624;2023-05-10T23:08:52;15.60;1.00
3876;DHT22;1953;51.222;6.624;2023-05-10T23:13:36;15.50;1.00
3876;DHT22;1953;51.222;6.624;2023-05-10T23:18:18;15.40;1.00
3876;DHT22;1953;51.222;6.624;2023-05-10T23:23:01;15.40;1.00
3876;DHT22;1953;51.222;6.624;2023-05-10T23:27:43;15.50;1.00
3876;DHT22;1953;51.222;6.624;2023-05-10T23:32:27;15.40;1.00
3876;DHT22;1953;51.222;6.624;2023-05-10T23:37:09;15.30;1.00
3876;DHT22;1953;51.222;6.624;2023-05-10T23:41:52;15.30;1.00
3876;DHT22;1953;51.222;6.624;2023-05-10T23:46:34;15.20;1.00
3876;DHT22;1953;51.222;6.624;2023-05-10T23:51:18;15.20;1.00
3876;DHT22;1953;51.222;6.624;2023-05-10T23:56:00;15.20;1.00
